sensor_id;sensor_type;location;lat;lon;timestamp;temperature;humidity
10678;DHT22;5387;48.722;9.110;2022-07-29T00:00:05;18.50;99.90
10678;DHT22;5387;48.722;9.110;2022-07-29T00:02:33;18.50;99.90
10678;DHT22;5387;48.722;9.110;2022-07-29T00:04:59;18.50;99.90
10678;DHT22;5387;48.722;9.110;2022-07-29T00:07:26;18.60;99.90
10678;DHT22;5387;48.722;9.110;2022-07-29T00:09:53;18.60;99.90
10678;DHT22;5387;48.722;9.110;2022-07-29T00:12:21;18.60;99.90
10678;DHT22;5387;48.722;9.110;2022-07-29T00:14:50;18.50;99.90
10678;DHT22;5387;48.722;9.110;2022-07-29T00:17:17;18.50;99.90
10678;DHT22;5387;48.722;9.110;2022-07-29T00:19:44;18.50;99.90
10678;DHT22;5387;48.722;9.110;2022-07-29T00:22:11;18.50;99.90
10678;DHT22;5387;48.722;9.110;2022-07-29T00:24:38;18.40;99.90
10678;DHT22;5387;48.722;9.110;2022-07-29T00:27:05;18.50;99.90
10678;DHT22;5387;48.722;9.110;2022-07-29T00:29:31;18.40;99.90
10678;DHT22;5387;48.722;9.110;2022-07-29T00:32:00;18.30;99.90
10678;DHT22;5387;48.722;9.110;2022-07-29T00:34:26;18.20;99.90
10678;DHT22;5387;48.722;9.110;2022-07-29T00:37:11;18.30;99.90
10678;DHT22;5387;48.722;9.110;2022-07-29T00:39:37;18.30;99.90
10678;DHT22;5387;48.722;9.110;2022-07-29T00:42:05;18.30;99.90
10678;DHT22;5387;48.722;9.110;2022-07-29T00:44:36;18.30;99.90
10678;DHT22;5387;48.722;9.110;2022-07-29T00:47:05;18.20;99.90
10678;DHT22;5387;48.722;9.110;2022-07-29T00:49:32;18.30;99.90
10678;DHT22;5387;48.722;9.110;2022-07-29T00:52:00;18.30;99.90
10678;DHT22;5387;48.722;9.110;2022-07-29T00:54:27;18.20;99.90
10678;DHT22;5387;48.722;9.110;2022-07-29T00:56:56;18.20;99.90
10678;DHT22;5387;48.722;9.110;2022-07-29T00:59:24;18.20;99.90
10678;DHT22;5387;48.722;9.110;2022-07-29T01:01:52;18.20;99.90
10678;DHT22;5387;48.722;9.110;2022-07-29T01:04:21;18.20;99.90
10678;DHT22;5387;48.722;9.110;2022-07-29T01:06:48;18.10;99.90
10678;DHT22;5387;48.722;9.110;2022-07-29T01:09:16;18.10;99.90
10678;DHT22;5387;48.722;9.110;2022-07-29T01:11:45;18.10;99.90
10678;DHT22;5387;48.722;9.110;2022-07-29T01:14:14;18.10;99.90
10678;DHT22;5387;48.722;9.110;2022-07-29T01:16:46;18.10;99.90
10678;DHT22;5387;48.722;9.110;2022-07-29T01:19:33;18.00;99.90
10678;DHT22;5387;48.722;9.110;2022-07-29T01:22:18;18.00;99.90
10678;DHT22;5387;48.722;9.110;2022-07-29T01:25:12;18.10;99.90
10678;DHT22;5387;48.722;9.110;2022-07-29T01:27:51;18.00;99.90
10678;DHT22;5387;48.722;9.110;2022-07-29T01:30:29;18.00;99.90
10678;DHT22;5387;48.722;9.110;2022-07-29T01:33:01;18.00;99.90
10678;DHT22;5387;48.722;9.110;2022-07-29T01:35:35;18.10;99.90
10678;DHT22;5387;48.722;9.110;2022-07-29T01:38:07;18.10;99.90
10678;DHT22;5387;48.722;9.110;2022-07-29T01:40:37;18.00;99.90
10678;DHT22;5387;48.722;9.110;2022-07-29T01:43:11;18.00;99.90
10678;DHT22;5387;48.722;9.110;2022-07-29T01:45:43;18.00;99.90
10678;DHT22;5387;48.722;9.110;2022-07-29T01:48:15;18.00;99.90
10678;DHT22;5387;48.722;9.110;2022-07-29T01:50:48;17.90;99.90
10678;DHT22;5387;48.722;9.110;2022-07-29T01:53:21;18.00;99.90
10678;DHT22;5387;48.722;9.110;2022-07-29T01:55:50;18.00;99.90
10678;DHT22;5387;48.722;9.110;2022-07-29T01:58:19;17.90;99.90
10678;DHT22;5387;48.722;9.110;2022-07-29T02:00:48;17.90;99.90
10678;DHT22;5387;48.722;9.110;2022-07-29T02:03:17;17.80;99.90
10678;DHT22;5387;48.722;9.110;2022-07-29T02:05:46;17.90;99.90
10678;DHT22;5387;48.722;9.110;2022-07-29T02:08:15;17.80;99.90
10678;DHT22;5387;48.722;9.110;2022-07-29T02:10:44;17.80;99.90
10678;DHT22;5387;48.722;9.110;2022-07-29T02:13:13;17.80;99.90
10678;DHT22;5387;48.722;9.110;2022-07-29T02:15:42;17.80;99.90
10678;DHT22;5387;48.722;9.110;2022-07-29T02:18:14;17.70;99.90
10678;DHT22;5387;48.722;9.110;2022-07-29T02:20:45;17.80;99.90
10678;DHT22;5387;48.722;9.110;2022-07-29T02:23:15;17.80;99.90
10678;DHT22;5387;48.722;9.110;2022-07-29T02:25:44;17.70;99.90
10678;DHT22;5387;48.722;9.110;2022-07-29T02:28:12;17.70;99.90
10678;DHT22;5387;48.722;9.110;2022-07-29T02:30:41;17.70;99.90
10678;DHT22;5387;48.722;9.110;2022-07-29T02:33:12;17.70;99.90
10678;DHT22;5387;48.722;9.110;2022-07-29T02:35:40;17.60;99.90
10678;DHT22;5387;48.722;9.110;2022-07-29T02:38:10;17.60;99.90
10678;DHT22;5387;48.722;9.110;2022-07-29T02:40:58;17.60;99.90
10678;DHT22;5387;48.722;9.110;2022-07-29T02:43:26;17.60;99.90
10678;DHT22;5387;48.722;9.110;2022-07-29T02:45:54;17.50;99.90
10678;DHT22;5387;48.722;9.110;2022-07-29T02:48:32;17.50;99.90
10678;DHT22;5387;48.722;9.110;2022-07-29T02:51:05;17.50;99.90
10678;DHT22;5387;48.722;9.110;2022-07-29T02:53:33;17.40;99.90
10678;DHT22;5387;48.722;9.110;2022-07-29T02:56:06;17.40;99.90
10678;DHT22;5387;48.722;9.110;2022-07-29T02:58:39;17.40;99.90
10678;DHT22;5387;48.722;9.110;2022-07-29T03:01:11;17.40;99.90
10678;DHT22;5387;48.722;9.110;2022-07-29T03:03:43;17.40;99.90
10678;DHT22;5387;48.722;9.110;2022-07-29T03:06:12;17.40;99.90
10678;DHT22;5387;48.722;9.110;2022-07-29T03:08:40;17.50;99.90
10678;DHT22;5387;48.722;9.110;2022-07-29T03:11:07;17.50;99.90
10678;DHT22;5387;48.722;9.110;2022-07-29T03:13:35;17.50;99.90
10678;DHT22;5387;48.722;9.110;2022-07-29T03:16:03;17.40;99.90
10678;DHT22;5387;48.722;9.110;2022-07-29T03:18:31;17.40;99.90
10678;DHT22;5387;48.722;9.110;2022-07-29T03:20:59;17.40;99.90
10678;DHT22;5387;48.722;9.110;2022-07-29T03:23:26;17.30;99.90
10678;DHT22;5387;48.722;9.110;2022-07-29T03:25:53;17.40;99.90
10678;DHT22;5387;48.722;9.110;2022-07-29T03:28:20;17.30;99.90
10678;DHT22;5387;48.722;9.110;2022-07-29T03:30:47;17.20;99.90
10678;DHT22;5387;48.722;9.110;2022-07-29T03:33:14;17.20;99.90
10678;DHT22;5387;48.722;9.110;2022-07-29T03:35:41;17.10;99.90
10678;DHT22;5387;48.722;9.110;2022-07-29T03:38:10;17.10;99.90
10678;DHT22;5387;48.722;9.110;2022-07-29T03:40:40;17.10;99.90
10678;DHT22;5387;48.722;9.110;2022-07-29T03:43:10;17.10;99.90
10678;DHT22;5387;48.722;9.110;2022-07-29T03:45:37;17.10;99.90
10678;DHT22;5387;48.722;9.110;2022-07-29T03:48:07;17.10;99.90
10678;DHT22;5387;48.722;9.110;2022-07-29T03:50:35;17.10;99.90
10678;DHT22;5387;48.722;9.110;2022-07-29T03:53:03;17.00;99.90
10678;DHT22;5387;48.722;9.110;2022-07-29T03:55:36;17.10;99.90
10678;DHT22;5387;48.722;9.110;2022-07-29T03:58:04;17.00;99.90
10678;DHT22;5387;48.722;9.110;2022-07-29T04:00:32;17.00;99.90
10678;DHT22;5387;48.722;9.110;2022-07-29T04:03:00;17.00;99.90
10678;DHT22;5387;48.722;9.110;2022-07-29T04:05:27;17.00;99.90
10678;DHT22;5387;48.722;9.110;2022-07-29T04:07:53;17.10;99.90
10678;DHT22;5387;48.722;9.110;2022-07-29T04:10:20;17.10;99.90
10678;DHT22;5387;48.722;9.110;2022-07-29T04:12:50;17.10;99.90
10678;DHT22;5387;48.722;9.110;2022-07-29T04:15:17;17.10;99.90
10678;DHT22;5387;48.722;9.110;2022-07-29T04:17:43;17.10;99.90
10678;DHT22;5387;48.722;9.110;2022-07-29T04:20:11;17.10;99.90
10678;DHT22;5387;48.722;9.110;2022-07-29T04:22:38;17.20;99.90
10678;DHT22;5387;48.722;9.110;2022-07-29T04:25:06;17.20;99.90
10678;DHT22;5387;48.722;9.110;2022-07-29T04:27:32;17.30;99.90
10678;DHT22;5387;48.722;9.110;2022-07-29T04:30:01;17.30;99.90
10678;DHT22;5387;48.722;9.110;2022-07-29T04:32:28;17.40;99.90
10678;DHT22;5387;48.722;9.110;2022-07-29T04:34:54;17.40;99.90
10678;DHT22;5387;48.722;9.110;2022-07-29T04:37:21;17.40;99.90
10678;DHT22;5387;48.722;9.110;2022-07-29T04:39:48;17.50;99.90
10678;DHT22;5387;48.722;9.110;2022-07-29T04:42:15;17.50;99.90
10678;DHT22;5387;48.722;9.110;2022-07-29T04:44:42;17.50;99.90
10678;DHT22;5387;48.722;9.110;2022-07-29T04:47:10;17.60;99.90
10678;DHT22;5387;48.722;9.110;2022-07-29T04:49:38;17.70;99.90
10678;DHT22;5387;48.722;9.110;2022-07-29T04:52:05;17.80;99.90
10678;DHT22;5387;48.722;9.110;2022-07-29T04:54:32;17.80;99.90
10678;DHT22;5387;48.722;9.110;2022-07-29T04:56:59;17.90;99.90
10678;DHT22;5387;48.722;9.110;2022-07-29T04:59:26;18.00;99.90
10678;DHT22;5387;48.722;9.110;2022-07-29T05:01:53;18.00;99.90
10678;DHT22;5387;48.722;9.110;2022-07-29T05:04:21;18.20;99.90
10678;DHT22;5387;48.722;9.110;2022-07-29T05:06:48;18.30;99.90
10678;DHT22;5387;48.722;9.110;2022-07-29T05:09:15;18.30;99.90
10678;DHT22;5387;48.722;9.110;2022-07-29T05:11:42;18.30;99.90
10678;DHT22;5387;48.722;9.110;2022-07-29T05:14:09;18.40;99.90
10678;DHT22;5387;48.722;9.110;2022-07-29T05:16:36;18.40;99.90
10678;DHT22;5387;48.722;9.110;2022-07-29T05:19:04;18.50;99.90
10678;DHT22;5387;48.722;9.110;2022-07-29T05:21:32;18.50;99.90
10678;DHT22;5387;48.722;9.110;2022-07-29T05:23:59;18.60;99.90
10678;DHT22;5387;48.722;9.110;2022-07-29T05:26:26;18.60;99.90
10678;DHT22;5387;48.722;9.110;2022-07-29T05:28:53;18.70;99.90
10678;DHT22;5387;48.722;9.110;2022-07-29T05:31:20;18.70;99.90
10678;DHT22;5387;48.722;9.110;2022-07-29T05:33:47;18.90;99.90
10678;DHT22;5387;48.722;9.110;2022-07-29T05:36:14;19.00;99.90
10678;DHT22;5387;48.722;9.110;2022-07-29T05:38:42;19.00;99.90
10678;DHT22;5387;48.722;9.110;2022-07-29T05:41:09;19.00;99.90
10678;DHT22;5387;48.722;9.110;2022-07-29T05:43:36;19.00;99.90
10678;DHT22;5387;48.722;9.110;2022-07-29T05:46:03;19.10;99.90
10678;DHT22;5387;48.722;9.110;2022-07-29T05:48:30;19.20;99.90
10678;DHT22;5387;48.722;9.110;2022-07-29T05:50:56;19.20;99.90
10678;DHT22;5387;48.722;9.110;2022-07-29T05:53:23;19.20;99.90
10678;DHT22;5387;48.722;9.110;2022-07-29T05:55:52;19.30;99.90
10678;DHT22;5387;48.722;9.110;2022-07-29T05:58:19;19.40;99.90
10678;DHT22;5387;48.722;9.110;2022-07-29T06:00:46;19.50;99.90
10678;DHT22;5387;48.722;9.110;2022-07-29T06:03:13;19.70;99.90
10678;DHT22;5387;48.722;9.110;2022-07-29T06:05:40;19.80;99.90
10678;DHT22;5387;48.722;9.110;2022-07-29T06:08:07;19.70;99.90
10678;DHT22;5387;48.722;9.110;2022-07-29T06:10:35;19.70;99.90
10678;DHT22;5387;48.722;9.110;2022-07-29T06:13:03;19.70;99.90
10678;DHT22;5387;48.722;9.110;2022-07-29T06:15:30;19.90;99.90
10678;DHT22;5387;48.722;9.110;2022-07-29T06:17:57;19.90;99.90
10678;DHT22;5387;48.722;9.110;2022-07-29T06:20:24;20.00;99.90
10678;DHT22;5387;48.722;9.110;2022-07-29T06:22:50;20.20;99.90
10678;DHT22;5387;48.722;9.110;2022-07-29T06:25:17;20.10;99.90
10678;DHT22;5387;48.722;9.110;2022-07-29T06:27:44;20.30;99.90
10678;DHT22;5387;48.722;9.110;2022-07-29T06:30:13;20.20;99.90
10678;DHT22;5387;48.722;9.110;2022-07-29T06:32:40;20.20;99.90
10678;DHT22;5387;48.722;9.110;2022-07-29T06:35:07;20.20;99.90
10678;DHT22;5387;48.722;9.110;2022-07-29T06:37:34;20.00;99.90
10678;DHT22;5387;48.722;9.110;2022-07-29T06:40:01;20.10;99.90
10678;DHT22;5387;48.722;9.110;2022-07-29T06:42:47;20.20;99.90
10678;DHT22;5387;48.722;9.110;2022-07-29T06:45:15;20.20;99.90
10678;DHT22;5387;48.722;9.110;2022-07-29T06:47:42;20.30;99.90
10678;DHT22;5387;48.722;9.110;2022-07-29T06:50:09;20.60;99.90
10678;DHT22;5387;48.722;9.110;2022-07-29T06:52:38;20.70;99.90
10678;DHT22;5387;48.722;9.110;2022-07-29T06:55:07;20.80;99.90
10678;DHT22;5387;48.722;9.110;2022-07-29T06:57:34;21.10;99.90
10678;DHT22;5387;48.722;9.110;2022-07-29T07:00:01;21.10;99.90
10678;DHT22;5387;48.722;9.110;2022-07-29T07:02:31;21.50;99.90
10678;DHT22;5387;48.722;9.110;2022-07-29T07:04:58;21.60;99.90
10678;DHT22;5387;48.722;9.110;2022-07-29T07:07:25;21.80;99.90
10678;DHT22;5387;48.722;9.110;2022-07-29T07:09:52;21.90;99.90
10678;DHT22;5387;48.722;9.110;2022-07-29T07:12:19;21.90;99.90
10678;DHT22;5387;48.722;9.110;2022-07-29T07:14:45;22.00;99.90
10678;DHT22;5387;48.722;9.110;2022-07-29T07:17:13;21.90;99.90
10678;DHT22;5387;48.722;9.110;2022-07-29T07:19:41;22.00;99.90
10678;DHT22;5387;48.722;9.110;2022-07-29T07:22:08;22.10;99.90
10678;DHT22;5387;48.722;9.110;2022-07-29T07:24:35;22.10;99.90
10678;DHT22;5387;48.722;9.110;2022-07-29T07:27:02;22.20;99.90
10678;DHT22;5387;48.722;9.110;2022-07-29T07:29:29;22.00;99.90
10678;DHT22;5387;48.722;9.110;2022-07-29T07:31:57;22.20;99.90
10678;DHT22;5387;48.722;9.110;2022-07-29T07:34:24;22.50;99.90
10678;DHT22;5387;48.722;9.110;2022-07-29T07:36:52;22.40;99.90
10678;DHT22;5387;48.722;9.110;2022-07-29T07:39:19;22.40;99.90
10678;DHT22;5387;48.722;9.110;2022-07-29T07:41:46;22.40;99.90
10678;DHT22;5387;48.722;9.110;2022-07-29T07:44:12;22.50;99.90
10678;DHT22;5387;48.722;9.110;2022-07-29T07:46:39;22.90;99.90
10678;DHT22;5387;48.722;9.110;2022-07-29T07:49:06;22.80;99.90
10678;DHT22;5387;48.722;9.110;2022-07-29T07:51:34;22.90;99.90
10678;DHT22;5387;48.722;9.110;2022-07-29T07:54:02;23.20;99.90
10678;DHT22;5387;48.722;9.110;2022-07-29T07:56:29;23.40;99.90
10678;DHT22;5387;48.722;9.110;2022-07-29T07:58:56;23.70;99.90
10678;DHT22;5387;48.722;9.110;2022-07-29T08:01:23;23.80;99.90
10678;DHT22;5387;48.722;9.110;2022-07-29T08:03:50;23.90;99.90
10678;DHT22;5387;48.722;9.110;2022-07-29T08:06:17;23.90;99.90
10678;DHT22;5387;48.722;9.110;2022-07-29T08:08:43;24.00;99.90
10678;DHT22;5387;48.722;9.110;2022-07-29T08:11:11;24.00;99.90
10678;DHT22;5387;48.722;9.110;2022-07-29T08:13:39;24.10;99.90
10678;DHT22;5387;48.722;9.110;2022-07-29T08:16:06;23.90;99.90
10678;DHT22;5387;48.722;9.110;2022-07-29T08:18:41;23.80;99.90
10678;DHT22;5387;48.722;9.110;2022-07-29T08:21:08;23.80;99.90
10678;DHT22;5387;48.722;9.110;2022-07-29T08:23:35;24.10;99.90
10678;DHT22;5387;48.722;9.110;2022-07-29T08:26:05;24.20;99.90
10678;DHT22;5387;48.722;9.110;2022-07-29T08:28:37;24.30;99.90
10678;DHT22;5387;48.722;9.110;2022-07-29T08:31:04;24.30;99.90
10678;DHT22;5387;48.722;9.110;2022-07-29T08:33:31;24.30;99.90
10678;DHT22;5387;48.722;9.110;2022-07-29T08:35:58;24.30;99.90
10678;DHT22;5387;48.722;9.110;2022-07-29T08:38:25;24.50;99.90
10678;DHT22;5387;48.722;9.110;2022-07-29T08:40:52;24.30;99.90
10678;DHT22;5387;48.722;9.110;2022-07-29T08:43:19;24.20;99.90
10678;DHT22;5387;48.722;9.110;2022-07-29T08:45:50;24.20;99.90
10678;DHT22;5387;48.722;9.110;2022-07-29T08:48:18;24.40;99.90
10678;DHT22;5387;48.722;9.110;2022-07-29T08:50:47;24.50;99.90
10678;DHT22;5387;48.722;9.110;2022-07-29T08:53:15;24.50;99.90
10678;DHT22;5387;48.722;9.110;2022-07-29T08:55:43;24.30;99.90
10678;DHT22;5387;48.722;9.110;2022-07-29T08:58:11;24.20;99.90
10678;DHT22;5387;48.722;9.110;2022-07-29T09:00:42;24.50;99.90
10678;DHT22;5387;48.722;9.110;2022-07-29T09:03:12;24.50;99.90
10678;DHT22;5387;48.722;9.110;2022-07-29T09:05:41;24.60;99.90
10678;DHT22;5387;48.722;9.110;2022-07-29T09:08:09;24.80;99.90
10678;DHT22;5387;48.722;9.110;2022-07-29T09:10:36;25.00;99.90
10678;DHT22;5387;48.722;9.110;2022-07-29T09:13:03;25.10;99.90
10678;DHT22;5387;48.722;9.110;2022-07-29T09:15:30;25.10;99.90
10678;DHT22;5387;48.722;9.110;2022-07-29T09:17:57;25.10;99.90
10678;DHT22;5387;48.722;9.110;2022-07-29T09:20:27;25.40;99.90
10678;DHT22;5387;48.722;9.110;2022-07-29T09:23:14;25.70;99.90
10678;DHT22;5387;48.722;9.110;2022-07-29T09:25:41;25.70;99.90
10678;DHT22;5387;48.722;9.110;2022-07-29T09:28:09;25.70;99.90
10678;DHT22;5387;48.722;9.110;2022-07-29T09:30:50;25.80;99.90
10678;DHT22;5387;48.722;9.110;2022-07-29T09:33:17;26.10;99.90
10678;DHT22;5387;48.722;9.110;2022-07-29T09:35:45;26.30;99.90
10678;DHT22;5387;48.722;9.110;2022-07-29T09:38:13;26.30;99.90
10678;DHT22;5387;48.722;9.110;2022-07-29T09:40:40;26.40;99.10
10678;DHT22;5387;48.722;9.110;2022-07-29T09:43:10;26.50;99.90
10678;DHT22;5387;48.722;9.110;2022-07-29T09:45:37;26.40;99.90
10678;DHT22;5387;48.722;9.110;2022-07-29T09:48:14;26.60;99.90
10678;DHT22;5387;48.722;9.110;2022-07-29T09:50:43;27.20;98.00
10678;DHT22;5387;48.722;9.110;2022-07-29T09:53:11;27.40;98.40
10678;DHT22;5387;48.722;9.110;2022-07-29T09:55:48;27.10;96.10
10678;DHT22;5387;48.722;9.110;2022-07-29T09:58:16;26.60;97.30
10678;DHT22;5387;48.722;9.110;2022-07-29T10:00:44;27.20;98.10
10678;DHT22;5387;48.722;9.110;2022-07-29T10:03:12;27.60;96.30
10678;DHT22;5387;48.722;9.110;2022-07-29T10:05:39;27.80;95.80
10678;DHT22;5387;48.722;9.110;2022-07-29T10:08:08;27.70;95.30
10678;DHT22;5387;48.722;9.110;2022-07-29T10:10:38;27.70;96.20
10678;DHT22;5387;48.722;9.110;2022-07-29T10:13:06;27.90;95.60
10678;DHT22;5387;48.722;9.110;2022-07-29T10:15:36;28.00;95.00
10678;DHT22;5387;48.722;9.110;2022-07-29T10:18:06;27.80;98.70
10678;DHT22;5387;48.722;9.110;2022-07-29T10:20:34;27.70;99.90
10678;DHT22;5387;48.722;9.110;2022-07-29T10:23:01;27.50;99.90
10678;DHT22;5387;48.722;9.110;2022-07-29T10:25:28;27.30;99.90
10678;DHT22;5387;48.722;9.110;2022-07-29T10:27:57;27.00;99.90
10678;DHT22;5387;48.722;9.110;2022-07-29T10:30:25;26.90;99.90
10678;DHT22;5387;48.722;9.110;2022-07-29T10:33:27;26.90;99.90
10678;DHT22;5387;48.722;9.110;2022-07-29T10:36:07;26.20;97.00
10678;DHT22;5387;48.722;9.110;2022-07-29T10:38:48;25.80;97.50
10678;DHT22;5387;48.722;9.110;2022-07-29T10:44:22;25.20;99.90
10678;DHT22;5387;48.722;9.110;2022-07-29T10:46:51;24.90;99.90
10678;DHT22;5387;48.722;9.110;2022-07-29T10:49:22;24.50;99.90
10678;DHT22;5387;48.722;9.110;2022-07-29T10:52:03;24.10;99.90
10678;DHT22;5387;48.722;9.110;2022-07-29T10:54:41;23.40;99.90
10678;DHT22;5387;48.722;9.110;2022-07-29T10:57:17;22.30;99.90
10678;DHT22;5387;48.722;9.110;2022-07-29T10:59:46;21.00;99.90
10678;DHT22;5387;48.722;9.110;2022-07-29T11:02:45;20.10;99.90
10678;DHT22;5387;48.722;9.110;2022-07-29T11:05:14;19.10;99.90
10678;DHT22;5387;48.722;9.110;2022-07-29T11:10:43;16.40;99.90
10678;DHT22;5387;48.722;9.110;2022-07-29T11:13:10;16.20;99.90
10678;DHT22;5387;48.722;9.110;2022-07-29T11:18:32;16.30;99.90
10678;DHT22;5387;48.722;9.110;2022-07-29T11:21:00;16.50;99.90
10678;DHT22;5387;48.722;9.110;2022-07-29T11:23:29;16.80;99.90
10678;DHT22;5387;48.722;9.110;2022-07-29T11:26:20;16.80;99.90
10678;DHT22;5387;48.722;9.110;2022-07-29T11:28:54;17.30;99.90
10678;DHT22;5387;48.722;9.110;2022-07-29T11:31:35;17.60;99.90
10678;DHT22;5387;48.722;9.110;2022-07-29T11:34:22;17.90;99.90
10678;DHT22;5387;48.722;9.110;2022-07-29T11:37:21;18.00;99.90
10678;DHT22;5387;48.722;9.110;2022-07-29T11:40:12;18.10;99.90
10678;DHT22;5387;48.722;9.110;2022-07-29T11:42:47;18.10;99.90
10678;DHT22;5387;48.722;9.110;2022-07-29T11:45:19;18.20;99.90
10678;DHT22;5387;48.722;9.110;2022-07-29T11:47:49;18.30;99.90
10678;DHT22;5387;48.722;9.110;2022-07-29T11:50:27;18.50;99.90
10678;DHT22;5387;48.722;9.110;2022-07-29T11:52:55;18.50;99.90
10678;DHT22;5387;48.722;9.110;2022-07-29T11:55:22;18.40;99.90
10678;DHT22;5387;48.722;9.110;2022-07-29T11:57:50;18.50;99.90
10678;DHT22;5387;48.722;9.110;2022-07-29T12:00:26;18.70;99.90
10678;DHT22;5387;48.722;9.110;2022-07-29T12:02:54;18.70;99.90
10678;DHT22;5387;48.722;9.110;2022-07-29T12:05:31;18.70;99.90
10678;DHT22;5387;48.722;9.110;2022-07-29T12:08:05;18.50;99.90
10678;DHT22;5387;48.722;9.110;2022-07-29T12:10:32;18.60;99.90
10678;DHT22;5387;48.722;9.110;2022-07-29T12:12:59;19.00;99.90
10678;DHT22;5387;48.722;9.110;2022-07-29T12:15:26;19.30;99.90
10678;DHT22;5387;48.722;9.110;2022-07-29T12:17:53;19.40;99.90
10678;DHT22;5387;48.722;9.110;2022-07-29T12:20:26;19.40;99.90
10678;DHT22;5387;48.722;9.110;2022-07-29T12:22:53;19.50;99.90
10678;DHT22;5387;48.722;9.110;2022-07-29T12:25:22;19.10;99.90
10678;DHT22;5387;48.722;9.110;2022-07-29T12:27:58;18.80;99.90
10678;DHT22;5387;48.722;9.110;2022-07-29T12:30:34;18.70;99.90
10678;DHT22;5387;48.722;9.110;2022-07-29T12:33:01;19.00;99.90
10678;DHT22;5387;48.722;9.110;2022-07-29T12:35:38;19.40;99.90
10678;DHT22;5387;48.722;9.110;2022-07-29T12:38:05;19.50;99.90
10678;DHT22;5387;48.722;9.110;2022-07-29T12:40:32;19.60;99.90
10678;DHT22;5387;48.722;9.110;2022-07-29T12:43:07;19.60;99.90
10678;DHT22;5387;48.722;9.110;2022-07-29T12:45:35;19.60;99.90
10678;DHT22;5387;48.722;9.110;2022-07-29T12:48:02;19.50;99.90
10678;DHT22;5387;48.722;9.110;2022-07-29T12:50:29;19.60;99.90
10678;DHT22;5387;48.722;9.110;2022-07-29T12:53:10;19.40;99.90
10678;DHT22;5387;48.722;9.110;2022-07-29T12:55:41;19.50;99.90
10678;DHT22;5387;48.722;9.110;2022-07-29T12:58:09;19.50;99.90
10678;DHT22;5387;48.722;9.110;2022-07-29T13:00:36;19.60;99.90
10678;DHT22;5387;48.722;9.110;2022-07-29T13:03:02;19.30;99.90
10678;DHT22;5387;48.722;9.110;2022-07-29T13:05:41;19.10;99.90
10678;DHT22;5387;48.722;9.110;2022-07-29T13:08:14;18.90;99.90
10678;DHT22;5387;48.722;9.110;2022-07-29T13:10:42;18.70;99.90
10678;DHT22;5387;48.722;9.110;2022-07-29T13:13:10;18.40;99.90
10678;DHT22;5387;48.722;9.110;2022-07-29T13:15:38;18.20;99.90
10678;DHT22;5387;48.722;9.110;2022-07-29T13:18:25;18.10;99.90
10678;DHT22;5387;48.722;9.110;2022-07-29T13:20:52;18.00;99.90
10678;DHT22;5387;48.722;9.110;2022-07-29T13:23:20;17.90;99.90
10678;DHT22;5387;48.722;9.110;2022-07-29T13:25:47;18.00;99.90
10678;DHT22;5387;48.722;9.110;2022-07-29T13:28:14;18.00;99.90
10678;DHT22;5387;48.722;9.110;2022-07-29T13:30:42;18.10;99.90
10678;DHT22;5387;48.722;9.110;2022-07-29T13:33:09;18.10;99.90
10678;DHT22;5387;48.722;9.110;2022-07-29T13:35:36;18.10;99.90
10678;DHT22;5387;48.722;9.110;2022-07-29T13:38:03;18.10;99.90
10678;DHT22;5387;48.722;9.110;2022-07-29T13:40:31;18.20;99.90
10678;DHT22;5387;48.722;9.110;2022-07-29T13:43:00;18.40;99.90
10678;DHT22;5387;48.722;9.110;2022-07-29T13:45:27;18.60;99.90
10678;DHT22;5387;48.722;9.110;2022-07-29T13:47:54;18.90;99.90
10678;DHT22;5387;48.722;9.110;2022-07-29T13:50:21;19.30;99.90
10678;DHT22;5387;48.722;9.110;2022-07-29T13:52:48;19.40;99.90
10678;DHT22;5387;48.722;9.110;2022-07-29T13:55:16;19.70;99.90
10678;DHT22;5387;48.722;9.110;2022-07-29T13:57:44;20.30;99.90
10678;DHT22;5387;48.722;9.110;2022-07-29T14:00:11;20.80;99.90
10678;DHT22;5387;48.722;9.110;2022-07-29T14:02:39;21.00;99.90
10678;DHT22;5387;48.722;9.110;2022-07-29T14:05:06;21.40;99.90
10678;DHT22;5387;48.722;9.110;2022-07-29T14:07:33;21.70;99.90
10678;DHT22;5387;48.722;9.110;2022-07-29T14:10:00;22.00;99.90
10678;DHT22;5387;48.722;9.110;2022-07-29T14:12:27;21.90;99.90
10678;DHT22;5387;48.722;9.110;2022-07-29T14:14:55;22.20;99.90
10678;DHT22;5387;48.722;9.110;2022-07-29T14:17:22;22.00;99.90
10678;DHT22;5387;48.722;9.110;2022-07-29T14:19:49;22.00;99.90
10678;DHT22;5387;48.722;9.110;2022-07-29T14:22:16;22.00;99.90
10678;DHT22;5387;48.722;9.110;2022-07-29T14:24:44;22.20;99.90
10678;DHT22;5387;48.722;9.110;2022-07-29T14:27:11;22.60;99.90
10678;DHT22;5387;48.722;9.110;2022-07-29T14:29:38;22.90;99.90
10678;DHT22;5387;48.722;9.110;2022-07-29T14:32:07;23.10;99.90
10678;DHT22;5387;48.722;9.110;2022-07-29T14:34:35;23.20;99.90
10678;DHT22;5387;48.722;9.110;2022-07-29T14:37:03;23.20;99.90
10678;DHT22;5387;48.722;9.110;2022-07-29T14:39:31;23.40;99.90
10678;DHT22;5387;48.722;9.110;2022-07-29T14:41:58;23.50;99.90
10678;DHT22;5387;48.722;9.110;2022-07-29T14:44:25;23.20;99.90
10678;DHT22;5387;48.722;9.110;2022-07-29T14:46:56;23.20;99.90
10678;DHT22;5387;48.722;9.110;2022-07-29T14:49:24;23.30;99.90
10678;DHT22;5387;48.722;9.110;2022-07-29T14:51:51;22.90;99.90
10678;DHT22;5387;48.722;9.110;2022-07-29T14:54:18;23.00;99.90
10678;DHT22;5387;48.722;9.110;2022-07-29T14:56:45;23.30;99.90
10678;DHT22;5387;48.722;9.110;2022-07-29T14:59:12;23.10;99.90
10678;DHT22;5387;48.722;9.110;2022-07-29T15:01:39;23.20;99.90
10678;DHT22;5387;48.722;9.110;2022-07-29T15:04:05;23.50;99.90
10678;DHT22;5387;48.722;9.110;2022-07-29T15:06:34;23.20;99.90
10678;DHT22;5387;48.722;9.110;2022-07-29T15:09:01;22.90;99.90
10678;DHT22;5387;48.722;9.110;2022-07-29T15:11:28;22.80;99.90
10678;DHT22;5387;48.722;9.110;2022-07-29T15:13:55;22.70;99.90
10678;DHT22;5387;48.722;9.110;2022-07-29T15:16:22;22.90;99.90
10678;DHT22;5387;48.722;9.110;2022-07-29T15:18:49;22.50;99.90
10678;DHT22;5387;48.722;9.110;2022-07-29T15:21:16;22.10;99.90
10678;DHT22;5387;48.722;9.110;2022-07-29T15:23:44;22.20;99.90
10678;DHT22;5387;48.722;9.110;2022-07-29T15:26:11;22.20;99.90
10678;DHT22;5387;48.722;9.110;2022-07-29T15:28:38;22.20;99.90
10678;DHT22;5387;48.722;9.110;2022-07-29T15:31:05;22.10;99.90
10678;DHT22;5387;48.722;9.110;2022-07-29T15:33:32;22.00;99.90
10678;DHT22;5387;48.722;9.110;2022-07-29T15:35:59;22.10;99.90
10678;DHT22;5387;48.722;9.110;2022-07-29T15:38:26;22.20;99.90
10678;DHT22;5387;48.722;9.110;2022-07-29T15:40:54;22.10;99.90
10678;DHT22;5387;48.722;9.110;2022-07-29T15:43:21;22.20;99.90
10678;DHT22;5387;48.722;9.110;2022-07-29T15:45:48;22.10;99.90
10678;DHT22;5387;48.722;9.110;2022-07-29T15:48:29;22.20;99.90
10678;DHT22;5387;48.722;9.110;2022-07-29T15:50:56;22.20;99.90
10678;DHT22;5387;48.722;9.110;2022-07-29T15:53:23;22.10;99.90
10678;DHT22;5387;48.722;9.110;2022-07-29T15:55:50;21.90;99.90
10678;DHT22;5387;48.722;9.110;2022-07-29T15:58:18;21.90;99.90
10678;DHT22;5387;48.722;9.110;2022-07-29T16:00:45;22.00;99.90
10678;DHT22;5387;48.722;9.110;2022-07-29T16:03:12;22.10;99.90
10678;DHT22;5387;48.722;9.110;2022-07-29T16:05:39;22.20;99.90